createdAt,value
2022-12-08T00:00:14.557Z,-0.06
2022-12-08T00:02:44.962Z,-0.04
2022-12-08T00:05:33.537Z,-0.05
2022-12-08T00:08:22.266Z,-0.08
2022-12-08T00:10:52.435Z,-0.12
2022-12-08T00:13:22.613Z,-0.05
2022-12-08T00:15:52.823Z,-0.03
2022-12-08T00:18:23.015Z,-0.05
2022-12-08T00:20:57.228Z,-0.06
2022-12-08T00:23:27.542Z,-0.03
2022-12-08T00:26:01.404Z,-0.11
2022-12-08T00:28:32.742Z,-0.15
2022-12-08T00:31:10.520Z,-0.28
2022-12-08T00:33:40.734Z,-0.21
2022-12-08T00:36:15.353Z,-0.20
2022-12-08T00:38:47.338Z,-0.20
2022-12-08T00:41:40.285Z,-0.25
2022-12-08T00:44:13.188Z,-0.23
2022-12-08T00:46:43.447Z,-0.26
2022-12-08T00:49:14.494Z,-0.32
2022-12-08T00:51:44.754Z,-0.32
2022-12-08T00:54:15.530Z,-0.34
2022-12-08T00:56:46.422Z,-0.33
2022-12-08T00:59:16.591Z,-0.29
2022-12-08T01:01:47.909Z,-0.30
2022-12-08T01:04:19.163Z,-0.27
2022-12-08T01:06:49.824Z,-0.29
2022-12-08T01:09:20.178Z,-0.27
2022-12-08T01:11:50.611Z,-0.26
2022-12-08T01:14:21.242Z,-0.29
2022-12-08T01:16:51.575Z,-0.30
2022-12-08T01:19:21.890Z,-0.34
2022-12-08T01:21:52.047Z,-0.40
2022-12-08T01:24:22.303Z,-0.45
2022-12-08T01:26:52.626Z,-0.45
2022-12-08T01:29:22.806Z,-0.46
2022-12-08T01:31:53.034Z,-0.46
2022-12-08T01:34:23.190Z,-0.50
2022-12-08T01:36:53.374Z,-0.52
2022-12-08T01:39:23.487Z,-0.59
2022-12-08T01:41:53.680Z,-0.57
2022-12-08T01:44:23.890Z,-0.55
2022-12-08T01:46:54.881Z,-0.56
2022-12-08T01:49:34.975Z,-0.56
2022-12-08T01:52:21.937Z,-0.54
2022-12-08T01:54:56.209Z,-0.57
2022-12-08T01:57:42.607Z,-0.58
2022-12-08T02:00:16.050Z,-0.65
2022-12-08T02:03:03.003Z,-0.65
2022-12-08T02:05:40.008Z,-0.63
2022-12-08T02:08:13.126Z,-0.66
2022-12-08T02:10:44.064Z,-0.65
2022-12-08T02:13:17.838Z,-0.67
2022-12-08T02:16:09.192Z,-0.65
2022-12-08T02:19:29.141Z,-0.66
2022-12-08T02:22:09.513Z,-0.64
2022-12-08T02:25:13.734Z,-0.65
2022-12-08T02:28:02.282Z,-0.62
2022-12-08T02:30:55.486Z,-0.63
2022-12-08T02:33:44.411Z,-0.62
2022-12-08T02:37:04.309Z,-0.61
2022-12-08T02:39:44.541Z,-0.67
2022-12-08T02:42:37.348Z,-0.64
2022-12-08T02:45:16.847Z,-0.68
2022-12-08T02:47:47.300Z,-0.71
2022-12-08T02:50:17.475Z,-0.77
2022-12-08T02:52:48.493Z,-0.76
2022-12-08T02:55:43.288Z,-0.73
2022-12-08T02:58:30.992Z,-0.75
2022-12-08T03:01:25.913Z,-0.75
2022-12-08T03:04:31.271Z,-0.72
2022-12-08T03:07:24.840Z,-0.73
2022-12-08T03:10:03.714Z,-0.91
2022-12-08T03:12:44.035Z,-0.85
2022-12-08T03:15:18.616Z,-0.88
2022-12-08T03:17:57.057Z,-0.90
2022-12-08T03:20:30.127Z,-0.92
2022-12-08T03:23:05.100Z,-0.89
2022-12-08T03:25:38.772Z,-0.89
2022-12-08T03:28:09.081Z,-0.88
2022-12-08T03:30:43.547Z,-0.91
2022-12-08T03:33:23.996Z,-0.90
2022-12-08T03:35:55.901Z,-0.89
2022-12-08T03:38:26.695Z,-0.90
2022-12-08T03:41:15.323Z,-0.88
2022-12-08T03:43:52.961Z,-0.80
2022-12-08T03:48:56.280Z,-0.76
2022-12-08T03:51:27.412Z,-0.70
2022-12-08T03:53:57.617Z,-0.66
2022-12-08T03:56:30.879Z,-0.65
2022-12-08T03:59:01.481Z,-0.66
2022-12-08T04:01:32.163Z,-0.65
2022-12-08T04:04:02.505Z,-0.64
2022-12-08T04:06:32.896Z,-0.60
2022-12-08T04:09:03.113Z,-0.62
2022-12-08T04:11:33.526Z,-0.65
2022-12-08T04:14:03.771Z,-0.66
2022-12-08T04:16:34.025Z,-0.67
2022-12-08T04:19:04.312Z,-0.69
2022-12-08T04:21:34.560Z,-0.71
2022-12-08T04:24:04.802Z,-0.70
2022-12-08T04:26:34.986Z,-0.68
2022-12-08T04:29:05.181Z,-0.67
2022-12-08T04:31:35.345Z,-0.64
2022-12-08T04:34:05.597Z,-0.60
2022-12-08T04:36:35.945Z,-0.60
2022-12-08T04:39:06.130Z,-0.61
2022-12-08T04:41:36.241Z,-0.65
2022-12-08T04:44:06.482Z,-0.52
2022-12-08T04:46:41.710Z,-0.51
2022-12-08T04:49:13.526Z,-0.48
2022-12-08T04:51:43.757Z,-0.47
2022-12-08T04:54:13.858Z,-0.44
2022-12-08T04:56:44.024Z,-0.43
2022-12-08T04:59:14.193Z,-0.42
2022-12-08T05:01:44.467Z,-0.38
2022-12-08T05:04:14.731Z,-0.36
2022-12-08T05:06:44.873Z,-0.37
2022-12-08T05:09:15.090Z,-0.43
2022-12-08T05:11:48.867Z,-0.36
2022-12-08T05:14:19.974Z,-0.34
2022-12-08T05:16:50.437Z,-0.39
2022-12-08T05:19:20.653Z,-0.28
2022-12-08T05:21:50.882Z,-0.27
2022-12-08T05:24:21.074Z,-0.25
2022-12-08T05:26:51.313Z,-0.18
2022-12-08T05:29:21.546Z,-0.20
2022-12-08T05:31:51.987Z,-0.06
2022-12-08T05:34:22.331Z,-0.03
2022-12-08T05:36:52.609Z,0.02
2022-12-08T05:39:22.812Z,0.00
2022-12-08T05:41:53.009Z,0.02
2022-12-08T05:44:23.218Z,-0.01
2022-12-08T05:46:53.358Z,-0.05
2022-12-08T05:49:23.549Z,-0.11
2022-12-08T05:51:53.695Z,-0.15
2022-12-08T05:54:24.194Z,-0.21
2022-12-08T05:56:54.488Z,-0.22
2022-12-08T05:59:24.787Z,-0.19
2022-12-08T06:01:54.960Z,-0.19
2022-12-08T06:04:25.506Z,-0.24
2022-12-08T06:06:55.916Z,-0.20
2022-12-08T06:09:26.627Z,-0.19
2022-12-08T06:11:56.885Z,-0.20
2022-12-08T06:14:27.069Z,-0.20
2022-12-08T06:16:57.371Z,-0.20
2022-12-08T06:19:27.547Z,-0.26
2022-12-08T06:21:57.724Z,-0.24
2022-12-08T06:24:27.915Z,-0.22
2022-12-08T06:26:58.139Z,-0.23
2022-12-08T06:29:28.346Z,-0.27
2022-12-08T06:31:58.644Z,-0.32
2022-12-08T06:34:28.917Z,-0.33
2022-12-08T06:36:59.162Z,-0.37
2022-12-08T06:39:29.481Z,-0.40
2022-12-08T06:42:18.458Z,-0.39
2022-12-08T06:44:48.776Z,-0.35
2022-12-08T06:47:26.062Z,-0.33
2022-12-08T06:49:56.584Z,-0.29
2022-12-08T06:52:26.685Z,-0.24
2022-12-08T06:54:56.793Z,-0.30
2022-12-08T06:57:26.887Z,-0.25
2022-12-08T06:59:57.052Z,-0.30
2022-12-08T07:02:27.225Z,-0.26
2022-12-08T07:04:57.401Z,-0.26
2022-12-08T07:07:27.644Z,-0.33
2022-12-08T07:09:57.799Z,-0.33
2022-12-08T07:12:27.906Z,-0.34
2022-12-08T07:14:58.187Z,-0.38
2022-12-08T07:17:28.262Z,-0.35
2022-12-08T07:20:02.328Z,-0.37
2022-12-08T07:22:32.818Z,-0.39
2022-12-08T07:25:03.320Z,-0.39
2022-12-08T07:27:33.551Z,-0.38
2022-12-08T07:30:04.441Z,-0.39
2022-12-08T07:32:34.931Z,-0.40
2022-12-08T07:35:06.483Z,-0.43
2022-12-08T07:37:37.704Z,-0.46
2022-12-08T07:40:09.014Z,-0.41
2022-12-08T07:42:39.344Z,-0.43
2022-12-08T07:45:09.911Z,-0.49
2022-12-08T07:47:40.052Z,-0.55
2022-12-08T07:50:10.316Z,-0.65
2022-12-08T07:52:40.495Z,-0.55
2022-12-08T07:55:10.611Z,-0.57
2022-12-08T07:57:40.849Z,-0.66
2022-12-08T08:00:11.570Z,-0.68
2022-12-08T08:02:42.256Z,-0.57
2022-12-08T08:05:12.664Z,-0.60
2022-12-08T08:07:43.886Z,-0.61
2022-12-08T08:10:14.095Z,-0.54
2022-12-08T08:12:44.451Z,-0.54
2022-12-08T08:15:14.742Z,-0.51
2022-12-08T08:17:45.134Z,-0.50
2022-12-08T08:20:15.331Z,-0.46
2022-12-08T08:22:50.464Z,-0.50
2022-12-08T08:25:22.952Z,-0.51
2022-12-08T08:27:54.595Z,-0.53
2022-12-08T08:30:25.084Z,-0.59
2022-12-08T08:32:55.325Z,-0.61
2022-12-08T08:35:25.893Z,-0.55
2022-12-08T08:37:56.490Z,-0.53
2022-12-08T08:40:26.618Z,-0.39
2022-12-08T08:42:56.845Z,-0.30
2022-12-08T08:45:27.061Z,-0.23
2022-12-08T08:47:57.350Z,-0.19
2022-12-08T08:50:30.510Z,-0.11
2022-12-08T08:53:04.426Z,-0.00
2022-12-08T08:55:34.917Z,-0.05
2022-12-08T08:58:05.122Z,0.09
2022-12-08T09:00:35.300Z,0.01
2022-12-08T09:03:05.560Z,0.08
2022-12-08T09:05:39.521Z,0.15
2022-12-08T09:08:09.752Z,0.12
2022-12-08T09:10:40.033Z,0.23
2022-12-08T09:13:10.137Z,0.28
2022-12-08T09:15:40.451Z,0.28
2022-12-08T09:18:12.129Z,0.26
2022-12-08T09:20:43.948Z,0.30
2022-12-08T09:23:15.295Z,0.25
2022-12-08T09:25:48.609Z,0.31
2022-12-08T09:28:18.850Z,0.34
2022-12-08T09:30:48.963Z,0.37
2022-12-08T09:33:19.106Z,0.38
2022-12-08T09:35:49.510Z,0.37
2022-12-08T09:38:19.737Z,0.39
2022-12-08T09:40:54.493Z,0.44
2022-12-08T09:43:36.062Z,0.48
2022-12-08T09:46:10.594Z,0.42
2022-12-08T09:48:52.050Z,0.37
2022-12-08T09:51:27.122Z,0.21
2022-12-08T09:54:19.399Z,0.29
2022-12-08T09:56:55.171Z,0.30
2022-12-08T09:59:33.625Z,0.34
2022-12-08T10:02:22.660Z,0.26
2022-12-08T10:05:02.677Z,0.24
2022-12-08T10:07:48.955Z,0.21
2022-12-08T10:10:42.415Z,0.25
2022-12-08T10:13:36.416Z,0.31
2022-12-08T14:24:54.799Z,-0.12
2022-12-08T14:27:27.142Z,0.12
2022-12-08T14:30:00.690Z,0.23
2022-12-08T14:32:44.537Z,0.32
2022-12-08T14:35:23.814Z,0.26
2022-12-08T14:38:00.274Z,0.40
2022-12-08T14:40:45.286Z,0.42
2022-12-08T14:43:19.078Z,0.34
2022-12-08T14:45:53.617Z,0.37
2022-12-08T14:48:28.500Z,0.46
2022-12-08T14:51:21.651Z,0.47
2022-12-08T14:54:01.760Z,0.46
2022-12-08T14:56:39.196Z,0.54
2022-12-08T14:59:19.560Z,0.55
2022-12-08T15:01:52.588Z,0.56
2022-12-08T15:04:28.621Z,0.56
2022-12-08T15:07:22.890Z,0.54
2022-12-08T15:10:08.595Z,0.61
2022-12-08T15:12:38.931Z,0.55
2022-12-08T15:15:08.998Z,0.66
2022-12-08T15:17:49.802Z,0.67
2022-12-08T15:20:43.292Z,0.64
2022-12-08T15:23:21.648Z,0.62
2022-12-08T15:25:52.599Z,0.54
2022-12-08T15:28:29.796Z,0.64
2022-12-08T15:31:00.875Z,0.63
2022-12-08T15:33:31.109Z,0.62
2022-12-08T15:36:01.302Z,0.66
2022-12-08T15:38:31.594Z,0.65
2022-12-08T15:41:01.898Z,0.67
2022-12-08T15:43:32.585Z,0.73
2022-12-08T15:46:04.642Z,0.68
2022-12-08T15:48:34.771Z,0.76
2022-12-08T15:51:04.976Z,0.76
2022-12-08T15:53:35.064Z,0.78
2022-12-08T15:58:58.623Z,0.77
2022-12-08T16:01:29.250Z,0.83
2022-12-08T16:04:27.900Z,0.71
2022-12-08T16:09:44.606Z,0.87
2022-12-08T16:18:25.093Z,0.91
2022-12-08T16:23:46.229Z,0.86
2022-12-08T16:27:50.638Z,0.95
2022-12-08T16:29:18.815Z,0.96
2022-12-08T16:31:50.312Z,0.98
2022-12-08T16:34:20.495Z,0.95
2022-12-08T16:36:52.591Z,0.98
2022-12-08T16:39:22.750Z,0.98
2022-12-08T16:42:11.571Z,1.00
2022-12-08T16:44:44.913Z,1.02
2022-12-08T16:47:15.106Z,0.99
2022-12-08T16:49:45.389Z,0.98
2022-12-08T16:52:17.399Z,0.97
2022-12-08T16:54:47.589Z,1.01
2022-12-08T16:57:17.759Z,1.03
2022-12-08T16:59:48.060Z,1.05
2022-12-08T17:02:19.017Z,1.00
2022-12-08T17:04:49.273Z,1.06
2022-12-08T17:07:19.457Z,1.02
2022-12-08T17:09:49.613Z,1.02
2022-12-08T17:12:19.834Z,1.03
2022-12-08T17:14:50.133Z,1.05
2022-12-08T17:17:20.315Z,1.06
2022-12-08T17:19:50.498Z,1.06
2022-12-08T17:22:20.697Z,1.08
2022-12-08T17:24:50.971Z,1.11
2022-12-08T17:27:21.217Z,1.08
2022-12-08T17:29:51.463Z,1.11
2022-12-08T17:32:22.003Z,1.13
2022-12-08T17:34:52.341Z,1.17
2022-12-08T17:37:22.568Z,1.16
2022-12-08T17:39:52.771Z,1.14
2022-12-08T17:42:26.200Z,1.14
2022-12-08T17:45:08.125Z,1.08
2022-12-08T17:47:38.987Z,1.03
2022-12-08T17:50:11.152Z,1.11
2022-12-08T17:52:41.830Z,1.06
2022-12-08T17:55:12.440Z,1.02
2022-12-08T17:57:42.974Z,1.07
2022-12-08T18:00:13.940Z,1.06
2022-12-08T18:02:44.155Z,0.90
2022-12-08T18:05:14.367Z,0.97
2022-12-08T18:07:44.921Z,0.97
2022-12-08T18:10:16.265Z,0.90
2022-12-08T18:12:46.755Z,0.88
2022-12-08T18:15:19.568Z,0.93
2022-12-08T18:17:49.719Z,0.91
2022-12-08T18:20:19.857Z,0.92
2022-12-08T18:22:51.771Z,0.88
2022-12-08T18:25:22.451Z,0.90
2022-12-08T18:27:53.425Z,0.84
2022-12-08T18:30:23.999Z,0.77
2022-12-08T18:32:57.333Z,0.85
2022-12-08T18:35:29.035Z,0.86
2022-12-08T18:38:00.478Z,0.78
2022-12-08T18:40:30.995Z,0.82
2022-12-08T18:43:01.190Z,0.85
2022-12-08T18:45:31.375Z,0.86
2022-12-08T18:48:01.542Z,0.79
2022-12-08T18:50:32.057Z,0.78
2022-12-08T18:53:02.753Z,0.78
2022-12-08T18:55:33.447Z,0.82
2022-12-08T18:58:04.116Z,0.82
2022-12-08T19:00:34.739Z,0.79
2022-12-08T19:03:05.541Z,0.82
2022-12-08T19:05:36.163Z,0.81
2022-12-08T19:08:07.374Z,0.84
2022-12-08T19:10:42.814Z,0.76
2022-12-08T19:13:15.219Z,0.77
2022-12-08T19:15:45.524Z,0.79
2022-12-08T19:18:16.301Z,0.78
2022-12-08T19:20:46.617Z,0.74
2022-12-08T19:23:16.990Z,0.64
2022-12-08T19:25:47.267Z,0.64
2022-12-08T19:28:17.516Z,0.65
2022-12-08T19:30:47.853Z,0.59
2022-12-08T19:33:18.018Z,0.54
2022-12-08T19:35:52.611Z,0.53
2022-12-08T19:38:23.213Z,0.53
2022-12-08T19:41:11.831Z,0.48
2022-12-08T19:44:00.347Z,0.35
2022-12-08T19:46:32.663Z,0.42
2022-12-08T19:49:06.143Z,0.41
2022-12-08T19:51:36.569Z,0.39
2022-12-08T19:54:07.597Z,0.35
2022-12-08T19:56:37.836Z,0.36
2022-12-08T19:59:08.161Z,0.43
2022-12-08T20:01:38.912Z,0.44
2022-12-08T20:04:10.650Z,0.42
2022-12-08T20:06:41.328Z,0.41
2022-12-08T20:09:13.151Z,0.48
2022-12-08T20:11:43.462Z,0.40
2022-12-08T20:14:13.631Z,0.47
2022-12-08T20:16:44.111Z,0.49
2022-12-08T20:19:14.401Z,0.55
2022-12-08T20:21:45.072Z,0.53
2022-12-08T20:24:16.811Z,0.60
2022-12-08T20:26:47.548Z,0.61
2022-12-08T20:29:18.909Z,0.61
2022-12-08T20:31:49.159Z,0.58
2022-12-08T20:34:20.094Z,0.55
2022-12-08T20:36:50.413Z,0.57
2022-12-08T20:39:20.582Z,0.59
2022-12-08T20:41:52.316Z,0.62
2022-12-08T20:44:28.873Z,0.67
2022-12-08T20:47:04.370Z,0.61
2022-12-08T20:49:42.021Z,0.66
2022-12-08T20:52:15.283Z,0.68
2022-12-08T20:54:50.513Z,0.65
2022-12-08T20:57:25.493Z,0.71
2022-12-08T20:59:59.218Z,0.71
2022-12-08T21:02:35.487Z,0.76
2022-12-08T21:05:08.908Z,0.72
2022-12-08T21:07:44.184Z,0.65
2022-12-08T21:10:20.022Z,0.62
2022-12-08T21:12:53.567Z,0.56
2022-12-08T21:15:25.221Z,0.68
2022-12-08T21:18:14.591Z,0.61
2022-12-08T21:20:47.311Z,0.65
2022-12-08T21:23:19.890Z,0.58
2022-12-08T21:25:51.729Z,0.62
2022-12-08T21:28:23.143Z,0.51
2022-12-08T21:30:56.435Z,0.64
2022-12-08T21:33:30.698Z,0.64
2022-12-08T21:36:15.668Z,0.63
2022-12-08T21:38:50.689Z,0.56
2022-12-08T21:41:49.690Z,0.61
2022-12-08T21:44:25.325Z,0.58
2022-12-08T21:47:01.412Z,0.56
2022-12-08T21:49:35.967Z,0.57
2022-12-08T21:52:14.596Z,0.56
2022-12-08T21:54:50.323Z,0.55
2022-12-08T21:57:20.635Z,0.56
2022-12-08T21:59:51.486Z,0.61
2022-12-08T22:02:23.224Z,0.54
2022-12-08T22:04:54.641Z,0.61
2022-12-08T22:07:25.367Z,0.59
2022-12-08T22:09:55.806Z,0.65
2022-12-08T22:12:26.155Z,0.64
2022-12-08T22:14:56.424Z,0.67
2022-12-08T22:17:26.799Z,0.66
2022-12-08T22:19:57.228Z,0.66
2022-12-08T22:22:27.641Z,0.73
2022-12-08T22:24:58.444Z,0.70
2022-12-08T22:27:28.996Z,0.71
2022-12-08T22:29:59.437Z,0.71
2022-12-08T22:32:29.740Z,0.69
2022-12-08T22:34:59.993Z,0.64
2022-12-08T22:37:30.232Z,0.71
2022-12-08T22:40:00.501Z,0.73
2022-12-08T22:42:31.207Z,0.66
2022-12-08T22:45:01.778Z,0.51
2022-12-08T22:47:32.115Z,0.61
2022-12-08T22:50:03.201Z,0.61
2022-12-08T22:52:33.802Z,0.67
2022-12-08T22:55:05.801Z,0.75
2022-12-08T22:57:36.052Z,0.70
2022-12-08T23:00:07.432Z,0.75
2022-12-08T23:02:38.263Z,0.72
2022-12-08T23:05:09.024Z,0.75
2022-12-08T23:07:39.902Z,0.69
2022-12-08T23:10:11.914Z,0.77
2022-12-08T23:12:42.512Z,0.79
2022-12-08T23:15:12.955Z,0.84
2022-12-08T23:17:43.482Z,0.86
2022-12-08T23:20:13.906Z,0.85
2022-12-08T23:22:44.128Z,0.86
2022-12-08T23:25:14.740Z,0.80
2022-12-08T23:27:46.052Z,0.81
2022-12-08T23:30:22.409Z,0.77
2022-12-08T23:32:56.600Z,0.74
2022-12-08T23:35:27.283Z,0.69
2022-12-08T23:37:57.992Z,0.68
2022-12-08T23:40:28.527Z,0.57
2022-12-08T23:42:58.862Z,0.61
2022-12-08T23:45:29.700Z,0.60
2022-12-08T23:48:00.248Z,0.63
2022-12-08T23:50:30.751Z,0.64
2022-12-08T23:53:01.150Z,0.68
2022-12-08T23:55:33.018Z,0.68
2022-12-08T23:58:03.460Z,0.69
